createdAt,value
2018-04-23T00:01:15.392Z,92.01
2018-04-23T00:04:17.886Z,92.21
2018-04-23T00:07:20.461Z,91.82
2018-04-23T00:10:22.924Z,92.09
2018-04-23T00:13:25.436Z,91.82
2018-04-23T00:16:27.900Z,91.98
2018-04-23T00:19:30.457Z,91.86
2018-04-23T00:22:32.953Z,90.34
2018-04-23T00:25:35.442Z,90.68
2018-04-23T00:28:37.948Z,90.86
2018-04-23T00:31:40.617Z,91.35
2018-04-23T00:34:43.110Z,91.72
2018-04-23T00:37:45.604Z,91.82
2018-04-23T00:40:48.080Z,92.35
2018-04-23T00:43:50.593Z,92.11
2018-04-23T00:46:53.078Z,91.43
2018-04-23T00:49:55.565Z,90.92
2018-04-23T00:53:09.975Z,90.91
2018-04-23T00:56:12.477Z,91.40
2018-04-23T00:59:14.927Z,91.42
2018-04-23T01:02:17.429Z,91.66
2018-04-23T01:05:19.940Z,91.42
2018-04-23T01:08:22.416Z,91.38
2018-04-23T01:11:24.950Z,91.37
2018-04-23T01:14:27.536Z,91.42
2018-04-23T01:17:30.022Z,91.63
2018-04-23T01:20:32.520Z,91.73
2018-04-23T01:23:35.075Z,91.66
2018-04-23T01:26:37.596Z,90.15
2018-04-23T01:29:40.126Z,90.48
2018-04-23T01:32:42.618Z,90.19
2018-04-23T01:35:45.127Z,87.70
2018-04-23T01:38:47.586Z,86.83
2018-04-23T01:41:50.088Z,87.17
2018-04-23T01:44:52.596Z,86.15
2018-04-23T01:47:55.081Z,86.57
2018-04-23T01:50:57.566Z,86.89
2018-04-23T01:54:00.011Z,87.58
2018-04-23T01:57:02.592Z,87.55
2018-04-23T02:00:05.161Z,87.69
2018-04-23T02:03:07.637Z,87.47
2018-04-23T02:06:10.192Z,87.56
2018-04-23T02:09:12.711Z,87.24
2018-04-23T02:12:15.207Z,88.22
2018-04-23T02:15:17.660Z,87.98
2018-04-23T02:18:20.174Z,88.57
2018-04-23T02:21:22.699Z,89.18
2018-04-23T02:24:25.178Z,88.48
2018-04-23T02:27:27.643Z,88.85
2018-04-23T02:30:30.173Z,88.75
2018-04-23T02:33:32.643Z,88.30
2018-04-23T02:36:35.133Z,88.35
2018-04-23T02:39:37.645Z,88.34
2018-04-23T02:42:40.152Z,88.75
2018-04-23T02:45:42.677Z,88.06
2018-04-23T02:48:45.254Z,88.69
2018-04-23T02:51:47.775Z,87.73
2018-04-23T02:54:50.228Z,87.91
2018-04-23T02:57:52.717Z,87.92
2018-04-23T03:00:55.231Z,87.83
2018-04-23T03:03:57.719Z,88.13
2018-04-23T03:07:00.237Z,87.57
2018-04-23T03:10:02.718Z,87.70
2018-04-23T03:13:05.216Z,87.68
2018-04-23T03:16:07.711Z,88.01
2018-04-23T03:19:10.212Z,87.98
2018-04-23T03:22:12.722Z,88.15
2018-04-23T03:25:15.208Z,88.25
2018-04-23T03:28:17.672Z,88.21
2018-04-23T03:31:20.412Z,88.45
2018-04-23T03:34:22.925Z,88.33
2018-04-23T03:37:25.440Z,88.02
2018-04-23T03:40:27.894Z,88.38
2018-04-23T03:43:30.390Z,88.35
2018-04-23T03:46:32.868Z,88.97
2018-04-23T03:49:35.372Z,88.73
2018-04-23T03:52:37.940Z,88.61
2018-04-23T03:55:40.499Z,88.86
2018-04-23T03:58:43.064Z,88.89
2018-04-23T04:01:45.533Z,89.39
2018-04-23T04:04:48.023Z,89.34
2018-04-23T04:07:50.649Z,89.38
2018-04-23T04:10:53.129Z,89.09
2018-04-23T04:14:07.304Z,89.44
2018-04-23T04:17:09.848Z,89.51
2018-04-23T04:20:12.368Z,89.27
2018-04-23T04:26:24.653Z,89.39
2018-04-23T04:29:27.159Z,89.44
2018-04-23T04:32:29.677Z,89.58
2018-04-23T04:35:32.213Z,89.21
2018-04-23T04:38:34.690Z,88.97
2018-04-23T04:41:37.235Z,89.35
2018-04-23T04:44:40.019Z,89.18
2018-04-23T04:47:42.593Z,88.90
2018-04-23T04:50:45.155Z,88.92
2018-04-23T04:53:47.664Z,89.34
2018-04-23T04:56:50.169Z,89.57
2018-04-23T04:59:52.688Z,89.78
2018-04-23T05:02:55.208Z,89.78
2018-04-23T05:05:57.729Z,89.88
2018-04-23T05:09:00.212Z,89.06
2018-04-23T05:12:02.655Z,87.80
2018-04-23T05:15:05.161Z,85.96
2018-04-23T05:18:07.685Z,85.82
2018-04-23T05:21:10.159Z,86.90
2018-04-23T05:24:12.687Z,87.49
2018-04-23T05:27:15.150Z,87.76
2018-04-23T05:30:17.751Z,87.77
2018-04-23T05:33:20.254Z,87.87
2018-04-23T05:36:22.720Z,87.21
2018-04-23T05:39:25.180Z,87.99
2018-04-23T05:42:27.700Z,88.44
2018-04-23T05:45:30.178Z,88.51
2018-04-23T05:48:32.616Z,87.96
2018-04-23T05:51:35.073Z,86.42
2018-04-23T05:54:37.604Z,85.16
2018-04-23T05:57:40.073Z,86.32
2018-04-23T06:00:42.610Z,86.36
2018-04-23T06:03:45.108Z,87.33
2018-04-23T06:06:47.543Z,87.32
2018-04-23T06:09:50.042Z,86.43
2018-04-23T06:12:52.543Z,86.45
2018-04-23T06:15:55.172Z,86.41
2018-04-23T06:18:57.668Z,85.48
2018-04-23T06:22:00.178Z,84.03
2018-04-23T06:25:02.704Z,83.57
2018-04-23T06:28:05.258Z,81.97
2018-04-23T06:31:07.708Z,77.08
2018-04-23T06:34:10.165Z,71.37
2018-04-23T06:37:12.669Z,67.71
2018-04-23T06:40:15.165Z,67.68
2018-04-23T06:43:17.655Z,64.42
2018-04-23T06:46:20.193Z,69.42
2018-04-23T06:49:22.694Z,70.68
2018-04-23T06:52:25.219Z,73.28
2018-04-23T06:55:27.663Z,72.91
2018-04-23T06:58:30.167Z,70.74
2018-04-23T07:01:32.657Z,72.96
2018-04-23T07:04:35.260Z,72.29
2018-04-23T07:07:37.772Z,71.93
2018-04-23T07:10:40.299Z,70.93
2018-04-23T07:13:42.792Z,71.57
2018-04-23T07:16:45.241Z,73.06
2018-04-23T07:19:47.740Z,74.19
2018-04-23T07:22:50.244Z,73.21
2018-04-23T07:25:52.756Z,72.05
2018-04-23T07:32:04.057Z,71.26
2018-04-23T07:35:06.524Z,71.13
2018-04-23T07:38:09.000Z,69.75
2018-04-23T07:41:11.459Z,70.64
2018-04-23T07:44:13.948Z,68.84
2018-04-23T07:47:16.562Z,69.74
2018-04-23T07:50:19.066Z,71.55
2018-04-23T07:53:21.517Z,71.90
2018-04-23T07:56:24.017Z,70.22
2018-04-23T07:59:26.559Z,71.28
2018-04-23T08:02:29.016Z,71.17
2018-04-23T08:05:31.534Z,70.38
2018-04-23T08:08:34.009Z,69.00
2018-04-23T08:11:36.656Z,69.76
2018-04-23T08:14:39.142Z,68.66
2018-04-23T08:17:41.650Z,69.23
2018-04-23T08:20:44.244Z,68.83
2018-04-23T08:23:46.714Z,68.42
2018-04-23T08:26:49.216Z,67.24
2018-04-23T08:29:51.781Z,67.34
2018-04-23T08:32:54.285Z,66.04
2018-04-23T08:35:56.845Z,64.85
2018-04-23T08:38:59.278Z,64.27
2018-04-23T08:42:01.810Z,64.30
2018-04-23T08:45:04.326Z,67.64
2018-04-23T08:48:06.815Z,66.19
2018-04-23T08:51:09.337Z,66.84
2018-04-23T08:54:11.830Z,66.08
2018-04-23T08:57:14.381Z,66.30
2018-04-23T09:00:16.944Z,63.99
2018-04-23T09:03:19.412Z,63.90
2018-04-23T09:06:21.903Z,64.41
2018-04-23T09:09:24.386Z,62.79
2018-04-23T09:12:26.903Z,63.47
2018-04-23T09:15:29.392Z,64.12
2018-04-23T09:18:31.915Z,62.95
2018-04-23T09:21:34.393Z,62.80
2018-04-23T09:24:36.846Z,62.51
2018-04-23T09:27:39.324Z,62.37
2018-04-23T09:30:41.776Z,62.28
2018-04-23T09:33:44.282Z,62.63
2018-04-23T09:36:46.766Z,61.99
2018-04-23T09:39:49.235Z,61.75
2018-04-23T09:42:51.735Z,62.02
2018-04-23T09:45:54.271Z,60.99
2018-04-23T09:48:56.817Z,60.89
2018-04-23T09:51:59.316Z,60.18
2018-04-23T09:55:01.799Z,58.71
2018-04-23T09:58:04.277Z,59.55
2018-04-23T10:01:12.498Z,60.10
2018-04-23T10:04:20.874Z,59.90
2018-04-23T10:07:23.386Z,59.01
2018-04-23T10:10:25.842Z,57.84
2018-04-23T10:13:28.347Z,57.95
2018-04-23T10:16:30.811Z,57.67
2018-04-23T10:19:33.430Z,57.43
2018-04-23T10:22:35.871Z,55.70
2018-04-23T10:25:38.420Z,55.58
2018-04-23T10:28:40.947Z,56.68
2018-04-23T10:31:43.543Z,58.07
2018-04-23T10:34:46.033Z,56.14
2018-04-23T10:37:48.533Z,55.97
2018-04-23T10:40:51.069Z,55.74
2018-04-23T10:43:53.534Z,55.30
2018-04-23T10:46:56.019Z,56.01
2018-04-23T10:49:58.490Z,56.68
2018-04-23T10:53:00.963Z,57.60
2018-04-23T10:56:03.456Z,57.50
2018-04-23T10:59:06.652Z,56.97
2018-04-23T11:02:09.154Z,57.51
2018-04-23T11:05:11.589Z,57.29
2018-04-23T11:08:14.060Z,56.45
2018-04-23T11:11:16.555Z,56.55
2018-04-23T11:14:19.133Z,54.46
2018-04-23T11:17:21.608Z,53.14
2018-04-23T11:20:24.118Z,54.70
2018-04-23T11:23:27.352Z,51.46
2018-04-23T11:26:29.893Z,53.34
2018-04-23T11:29:32.358Z,55.50
2018-04-23T11:32:34.969Z,53.49
2018-04-23T11:35:37.459Z,51.73
2018-04-23T11:38:39.944Z,50.72
2018-04-23T11:41:42.585Z,53.40
2018-04-23T11:44:45.093Z,53.46
2018-04-23T11:47:47.580Z,52.49
2018-04-23T11:50:50.063Z,53.00
2018-04-23T11:53:52.565Z,52.96
2018-04-23T11:56:55.103Z,50.95
2018-04-23T11:59:57.616Z,50.56
2018-04-23T12:03:00.140Z,51.31
2018-04-23T12:06:02.696Z,50.21
2018-04-23T12:09:06.068Z,50.63
2018-04-23T12:12:08.597Z,48.36
2018-04-23T12:15:11.215Z,50.88
2018-04-23T12:18:13.684Z,49.46
2018-04-23T12:21:16.213Z,47.63
2018-04-23T12:24:18.746Z,46.86
2018-04-23T12:27:21.247Z,48.71
2018-04-23T12:30:23.789Z,49.31
2018-04-23T12:33:26.242Z,50.74
2018-04-23T12:36:28.743Z,49.27
2018-04-23T12:39:31.289Z,50.54
2018-04-23T12:42:33.808Z,52.58
2018-04-23T12:45:36.345Z,53.16
2018-04-23T12:48:38.875Z,51.66
2018-04-23T12:51:41.435Z,52.53
2018-04-23T12:54:43.906Z,52.02
2018-04-23T12:57:46.401Z,51.03
2018-04-23T13:00:48.970Z,52.14
2018-04-23T13:03:51.484Z,52.07
2018-04-23T13:06:54.029Z,51.84
2018-04-23T13:09:56.478Z,50.91
2018-04-23T13:12:58.980Z,53.53
2018-04-23T13:16:01.476Z,52.18
2018-04-23T13:19:03.981Z,53.17
2018-04-23T13:22:06.491Z,52.11
2018-04-23T13:25:08.941Z,53.28
2018-04-23T13:28:11.420Z,53.91
2018-04-23T13:31:13.925Z,53.84
2018-04-23T13:34:16.380Z,53.10
2018-04-23T13:37:19.006Z,52.56
2018-04-23T13:40:21.460Z,52.82
2018-04-23T13:43:23.961Z,51.71
2018-04-23T13:46:26.421Z,50.58
2018-04-23T13:49:28.945Z,50.43
2018-04-23T13:52:31.405Z,51.17
2018-04-23T13:55:33.979Z,51.13
2018-04-23T13:58:36.426Z,51.45
2018-04-23T14:01:38.965Z,49.06
2018-04-23T14:04:41.511Z,50.22
2018-04-23T14:07:44.134Z,50.22
2018-04-23T14:10:46.605Z,49.72
2018-04-23T14:13:49.070Z,50.27
2018-04-23T14:16:51.552Z,48.21
2018-04-23T14:19:54.055Z,49.19
2018-04-23T14:22:56.606Z,49.02
2018-04-23T14:25:59.141Z,49.18
2018-04-23T14:29:01.600Z,49.04
2018-04-23T14:32:04.105Z,45.96
2018-04-23T14:35:06.587Z,46.03
2018-04-23T14:38:09.122Z,46.06
2018-04-23T14:41:11.700Z,45.59
2018-04-23T14:44:14.316Z,46.18
2018-04-23T14:47:16.882Z,45.77
2018-04-23T14:50:19.358Z,46.55
2018-04-23T14:53:21.867Z,47.18
2018-04-23T14:56:24.423Z,48.72
2018-04-23T14:59:26.907Z,47.78
2018-04-23T15:02:29.492Z,47.32
2018-04-23T15:05:32.001Z,48.45
2018-04-23T15:08:34.487Z,49.41
2018-04-23T15:11:36.999Z,49.79
2018-04-23T15:14:39.466Z,51.22
2018-04-23T15:17:41.991Z,51.38
2018-04-23T15:20:44.504Z,51.29
2018-04-23T15:23:46.987Z,52.05
2018-04-23T15:26:49.509Z,51.58
2018-04-23T15:29:52.000Z,53.10
2018-04-23T15:32:54.504Z,53.68
2018-04-23T15:35:56.980Z,52.01
2018-04-23T15:38:59.488Z,52.41
2018-04-23T15:42:02.061Z,53.10
2018-04-23T15:45:04.530Z,53.61
2018-04-23T15:48:07.012Z,53.81
2018-04-23T15:51:09.592Z,54.00
2018-04-23T15:54:12.114Z,53.96
2018-04-23T15:57:14.620Z,54.31
2018-04-23T16:00:17.146Z,54.61
2018-04-23T16:03:19.639Z,55.20
2018-04-23T16:06:22.179Z,54.20
2018-04-23T16:09:24.677Z,54.74
2018-04-23T16:12:27.200Z,53.94
2018-04-23T16:15:29.716Z,54.06
2018-04-23T16:18:32.216Z,53.52
2018-04-23T16:21:34.788Z,53.44
2018-04-23T16:24:37.324Z,54.23
2018-04-23T16:27:39.926Z,55.74
2018-04-23T16:30:42.424Z,54.68
2018-04-23T16:33:44.976Z,55.16
2018-04-23T16:36:47.480Z,55.07
2018-04-23T16:39:49.998Z,55.78
2018-04-23T16:42:52.531Z,56.18
2018-04-23T16:45:55.046Z,56.49
2018-04-23T16:48:57.520Z,55.22
2018-04-23T16:52:00.092Z,54.79
2018-04-23T16:55:02.651Z,56.49
2018-04-23T16:58:05.160Z,57.14
2018-04-23T17:01:07.617Z,57.61
2018-04-23T17:04:10.142Z,58.42
2018-04-23T17:07:12.613Z,58.03
2018-04-23T17:10:15.146Z,56.48
2018-04-23T17:13:17.716Z,56.32
2018-04-23T17:16:20.253Z,56.42
2018-04-23T17:19:22.811Z,55.69
2018-04-23T17:22:25.308Z,56.54
2018-04-23T17:25:27.826Z,56.39
2018-04-23T17:28:30.284Z,57.06
2018-04-23T17:31:32.821Z,56.54
2018-04-23T17:34:35.326Z,56.17
2018-04-23T17:37:37.969Z,56.38
2018-04-23T17:40:40.476Z,55.42
2018-04-23T17:43:42.961Z,56.39
2018-04-23T17:46:45.477Z,57.55
2018-04-23T17:49:48.017Z,58.22
2018-04-23T17:52:50.600Z,58.04
2018-04-23T17:55:53.161Z,58.21
2018-04-23T17:58:55.679Z,58.54
2018-04-23T18:01:58.204Z,59.04
2018-04-23T18:05:00.762Z,59.70
2018-04-23T18:08:03.298Z,60.51
2018-04-23T18:11:05.831Z,61.45
2018-04-23T18:14:08.414Z,62.00
2018-04-23T18:17:10.952Z,62.56
2018-04-23T18:20:13.459Z,62.24
2018-04-23T18:23:15.974Z,63.18
2018-04-23T18:26:18.534Z,63.49
2018-04-23T18:29:21.090Z,63.79
2018-04-23T18:32:23.614Z,63.90
2018-04-23T18:35:26.122Z,63.79
2018-04-23T18:38:28.620Z,64.72
2018-04-23T18:41:31.135Z,65.46
2018-04-23T18:44:33.666Z,65.31
2018-04-23T18:47:36.195Z,66.26
2018-04-23T18:50:38.767Z,66.98
2018-04-23T18:53:41.195Z,67.52
2018-04-23T18:56:43.754Z,67.33
2018-04-23T18:59:46.282Z,67.88
2018-04-23T19:02:48.753Z,68.13
2018-04-23T19:05:51.248Z,67.59
2018-04-23T19:08:53.763Z,67.93
2018-04-23T19:11:56.280Z,68.90
2018-04-23T19:14:58.803Z,69.19
2018-04-23T19:18:01.381Z,67.91
2018-04-23T19:21:03.950Z,67.93
2018-04-23T19:24:06.474Z,68.30
2018-04-23T19:27:08.975Z,68.22
2018-04-23T19:30:11.490Z,68.16
2018-04-23T19:33:14.047Z,67.77
2018-04-23T19:36:16.613Z,67.88
2018-04-23T19:39:19.219Z,67.75
2018-04-23T19:42:21.670Z,68.04
2018-04-23T19:45:24.163Z,67.45
2018-04-23T19:48:26.805Z,67.07
2018-04-23T19:51:29.377Z,67.17
2018-04-23T19:54:31.902Z,66.88
2018-04-23T19:57:34.468Z,66.88
2018-04-23T20:00:36.988Z,66.75
2018-04-23T20:03:39.497Z,67.03
2018-04-23T20:06:42.049Z,66.88
2018-04-23T20:09:44.647Z,66.55
2018-04-23T20:12:47.104Z,66.87
2018-04-23T20:15:49.626Z,66.75
2018-04-23T20:18:52.113Z,67.33
2018-04-23T20:21:54.650Z,67.39
2018-04-23T20:24:57.154Z,67.11
2018-04-23T20:27:59.688Z,67.88
2018-04-23T20:31:02.179Z,67.68
2018-04-23T20:34:04.708Z,67.34
2018-04-23T20:37:07.181Z,67.51
2018-04-23T20:40:09.758Z,67.05
2018-04-23T20:43:12.242Z,66.75
2018-04-23T20:46:14.766Z,65.93
2018-04-23T20:49:17.271Z,65.30
2018-04-23T20:52:19.740Z,66.01
2018-04-23T20:55:22.284Z,65.41
2018-04-23T20:58:24.890Z,66.15
2018-04-23T21:01:27.379Z,65.74
2018-04-23T21:04:29.893Z,65.77
2018-04-23T21:07:32.340Z,65.95
2018-04-23T21:10:34.830Z,65.86
2018-04-23T21:13:37.339Z,65.70
2018-04-23T21:16:39.839Z,65.44
2018-04-23T21:19:42.351Z,66.14
2018-04-23T21:22:44.820Z,65.75
2018-04-23T21:25:47.381Z,66.22
2018-04-23T21:28:49.850Z,65.82
2018-04-23T21:31:52.404Z,66.47
2018-04-23T21:34:54.890Z,65.96
2018-04-23T21:37:57.421Z,66.55
2018-04-23T21:40:59.981Z,66.50
2018-04-23T21:44:02.559Z,67.11
2018-04-23T21:47:05.235Z,67.94
2018-04-23T21:50:07.681Z,68.87
2018-04-23T21:53:10.162Z,69.68
2018-04-23T21:56:12.607Z,70.10
2018-04-23T21:59:15.081Z,70.29
2018-04-23T22:02:17.532Z,70.45
2018-04-23T22:05:19.962Z,70.87
2018-04-23T22:08:22.450Z,71.83
2018-04-23T22:11:24.952Z,72.17
2018-04-23T22:14:27.452Z,73.15
2018-04-23T22:17:29.941Z,73.63
2018-04-23T22:20:32.387Z,73.14
2018-04-23T22:23:34.902Z,73.45
2018-04-23T22:26:37.341Z,73.74
2018-04-23T22:29:39.830Z,73.90
2018-04-23T22:32:42.395Z,74.02
2018-04-23T22:35:44.866Z,74.12
2018-04-23T22:38:47.415Z,74.72
2018-04-23T22:41:49.878Z,75.12
2018-04-23T22:44:52.297Z,75.41
2018-04-23T22:47:54.782Z,75.70
2018-04-23T22:50:57.262Z,75.51
2018-04-23T22:53:59.740Z,75.47
2018-04-23T22:57:02.208Z,75.83
2018-04-23T23:00:04.695Z,75.78
2018-04-23T23:03:07.180Z,76.13
2018-04-23T23:06:09.620Z,76.28
2018-04-23T23:09:12.189Z,76.52
2018-04-23T23:12:14.660Z,76.52
2018-04-23T23:15:17.175Z,76.90
2018-04-23T23:18:19.614Z,76.83
2018-04-23T23:21:22.083Z,77.02
2018-04-23T23:24:24.560Z,77.09
2018-04-23T23:27:27.071Z,77.50
2018-04-23T23:30:29.597Z,77.90
2018-04-23T23:33:32.053Z,78.06
2018-04-23T23:36:34.586Z,77.35
2018-04-23T23:39:37.067Z,77.88
2018-04-23T23:42:39.531Z,78.06
2018-04-23T23:45:42.016Z,78.03
2018-04-23T23:48:44.565Z,78.10
2018-04-23T23:51:47.015Z,78.25
2018-04-23T23:54:49.480Z,78.14
2018-04-23T23:57:51.980Z,78.47
